This is the latest recevied weather packets stored in our database for station/object HB9HFD-13. If no packets are shown the sender has not sent any weather packets the latest 10 day(s).
| Time | Temp. | Humidity | Pressure | Rain* | Wind** | Luminosity | Snow |
|---|---|---|---|---|---|---|---|
| 1787907074 | 18.33° C | 73% | 1012.7 hPa | 0.25 mm | - | - | - |
| 1787906774 | 18.33° C | 73% | 1012.5 hPa | 0.25 mm | - | - | - |
| 1787906473 | 17.78° C | 77% | 1012.4 hPa | 0.25 mm | - | - | - |
| 1787906173 | 17.22° C | 81% | 1012.7 hPa | 0.25 mm | - | - | - |
| 1787905873 | 17.78° C | 79% | 1013 hPa | 0 mm | - | - | - |
| 1787905573 | 17.22° C | 82% | 1012.8 hPa | 0 mm | - | - | - |
| 1787905272 | 17.22° C | 84% | 1012.8 hPa | 0 mm | - | - | - |
| 1787904972 | 17.22° C | 83% | 1012.3 hPa | 0 mm | - | - | - |
| 1787904138 | 18.33° C | 83% | 1009.8 hPa | 20.32 mm | - | - | - |
| 1787903838 | 18.89° C | 83% | 1010.9 hPa | 20.32 mm | - | - | - |
| 1787903537 | 18.33° C | 89% | 1011.1 hPa | 20.32 mm | - | - | - |
| 1787903237 | 18.33° C | 88% | 1011.1 hPa | 20.32 mm | - | - | - |
| 1787902937 | 18.89° C | 86% | 1010.9 hPa | 20.07 mm | - | - | - |
| 1787902636 | 18.89° C | 84% | 1010.1 hPa | 14.99 mm | - | - | - |
| 1787902336 | 19.44° C | 84% | 1010.2 hPa | 13.72 mm | - | - | - |
| 1787902036 | 18.89° C | 84% | 1010.3 hPa | 13.72 mm | - | - | - |
| 1787901738 | 18.33° C | 88% | 1010.4 hPa | 13.46 mm | - | - | - |
| 1787901435 | 18.33° C | 86% | 1010.3 hPa | 13.46 mm | - | - | - |
| 1787901135 | 18.89° C | 84% | 1010.9 hPa | 11.68 mm | - | - | - |
| 1787900835 | 20.56° C | 78% | 1010.2 hPa | 5.08 mm | - | - | - |
| 1787900535 | 22.78° C | 69% | 1010.6 hPa | 0 mm | - | - | - |
| 1787900234 | 23.33° C | 69% | 1009.4 hPa | 0 mm | - | - | - |
| 1787899934 | 23.89° C | 72% | 1009.6 hPa | 0 mm | - | - | - |
| 1787899634 | 23.89° C | 73% | 1009.5 hPa | 0 mm | - | - | - |
| 1787899334 | 23.33° C | 76% | 1009 hPa | 0 mm | - | - | - |
* Rain latest hour (hover to see other rain measurements)
** Current wind speed in m/s (hover to see current wind gust speed)